sensor_id;sensor_type;location;lat;lon;timestamp;P1;durP1;ratioP1;P2;durP2;ratioP2
51664;SDS011;37751;52.408;12.536;2023-04-24T00:02:06;10.25;;;4.53;;
51664;SDS011;37751;52.408;12.536;2023-04-24T00:04:34;5.57;;;4.25;;
51664;SDS011;37751;52.408;12.536;2023-04-24T00:07:02;5.55;;;3.92;;
51664;SDS011;37751;52.408;12.536;2023-04-24T00:09:30;6.47;;;3.92;;
51664;SDS011;37751;52.408;12.536;2023-04-24T00:11:57;4.38;;;3.70;;
51664;SDS011;37751;52.408;12.536;2023-04-24T00:14:25;5.32;;;4.00;;
51664;SDS011;37751;52.408;12.536;2023-04-24T00:16:53;4.53;;;3.53;;
51664;SDS011;37751;52.408;12.536;2023-04-24T00:19:21;5.38;;;3.85;;
51664;SDS011;37751;52.408;12.536;2023-04-24T00:21:49;6.32;;;4.00;;
51664;SDS011;37751;52.408;12.536;2023-04-24T00:24:17;4.72;;;3.83;;
51664;SDS011;37751;52.408;12.536;2023-04-24T00:26:45;5.85;;;4.03;;
51664;SDS011;37751;52.408;12.536;2023-04-24T00:29:13;6.20;;;4.35;;
51664;SDS011;37751;52.408;12.536;2023-04-24T00:31:41;4.80;;;4.30;;
51664;SDS011;37751;52.408;12.536;2023-04-24T00:34:08;4.18;;;3.78;;
51664;SDS011;37751;52.408;12.536;2023-04-24T00:36:37;6.35;;;4.30;;
51664;SDS011;37751;52.408;12.536;2023-04-24T00:39:05;6.18;;;4.65;;
51664;SDS011;37751;52.408;12.536;2023-04-24T00:41:36;6.00;;;4.60;;
51664;SDS011;37751;52.408;12.536;2023-04-24T00:44:04;6.85;;;4.40;;
51664;SDS011;37751;52.408;12.536;2023-04-24T00:46:32;5.88;;;4.68;;
51664;SDS011;37751;52.408;12.536;2023-04-24T00:49:00;6.30;;;4.68;;
51664;SDS011;37751;52.408;12.536;2023-04-24T00:51:28;5.22;;;4.35;;
51664;SDS011;37751;52.408;12.536;2023-04-24T00:53:56;6.07;;;5.00;;
51664;SDS011;37751;52.408;12.536;2023-04-24T00:56:24;6.05;;;4.97;;
51664;SDS011;37751;52.408;12.536;2023-04-24T00:58:52;5.43;;;3.90;;
51664;SDS011;37751;52.408;12.536;2023-04-24T01:01:20;5.93;;;5.07;;
51664;SDS011;37751;52.408;12.536;2023-04-24T01:03:52;6.60;;;5.05;;
51664;SDS011;37751;52.408;12.536;2023-04-24T01:06:22;6.00;;;4.35;;
51664;SDS011;37751;52.408;12.536;2023-04-24T01:08:50;6.85;;;4.50;;
51664;SDS011;37751;52.408;12.536;2023-04-24T01:11:22;5.07;;;4.57;;
51664;SDS011;37751;52.408;12.536;2023-04-24T01:13:50;7.28;;;5.05;;
51664;SDS011;37751;52.408;12.536;2023-04-24T01:16:18;6.15;;;5.20;;
51664;SDS011;37751;52.408;12.536;2023-04-24T01:18:50;6.57;;;4.53;;
51664;SDS011;37751;52.408;12.536;2023-04-24T01:21:18;5.10;;;4.60;;
51664;SDS011;37751;52.408;12.536;2023-04-24T01:23:48;6.80;;;4.70;;
51664;SDS011;37751;52.408;12.536;2023-04-24T01:26:18;5.25;;;4.75;;
51664;SDS011;37751;52.408;12.536;2023-04-24T01:28:47;5.43;;;4.93;;
51664;SDS011;37751;52.408;12.536;2023-04-24T01:31:15;7.40;;;5.18;;
51664;SDS011;37751;52.408;12.536;2023-04-24T01:33:43;5.07;;;4.57;;
51664;SDS011;37751;52.408;12.536;2023-04-24T01:36:11;5.05;;;4.55;;
51664;SDS011;37751;52.408;12.536;2023-04-24T01:38:39;4.85;;;4.38;;
51664;SDS011;37751;52.408;12.536;2023-04-24T01:41:06;4.70;;;4.18;;
51664;SDS011;37751;52.408;12.536;2023-04-24T01:43:34;5.28;;;4.70;;
51664;SDS011;37751;52.408;12.536;2023-04-24T01:46:02;9.13;;;4.28;;
51664;SDS011;37751;52.408;12.536;2023-04-24T01:48:30;6.00;;;4.30;;
51664;SDS011;37751;52.408;12.536;2023-04-24T01:50:59;6.32;;;4.13;;
51664;SDS011;37751;52.408;12.536;2023-04-24T01:53:27;5.13;;;3.97;;
51664;SDS011;37751;52.408;12.536;2023-04-24T01:55:54;7.80;;;4.38;;
51664;SDS011;37751;52.408;12.536;2023-04-24T01:58:25;5.40;;;4.43;;
51664;SDS011;37751;52.408;12.536;2023-04-24T02:00:53;5.30;;;4.78;;
51664;SDS011;37751;52.408;12.536;2023-04-24T02:03:26;4.68;;;3.97;;
51664;SDS011;37751;52.408;12.536;2023-04-24T02:05:56;5.05;;;4.18;;
51664;SDS011;37751;52.408;12.536;2023-04-24T02:08:24;7.45;;;4.40;;
51664;SDS011;37751;52.408;12.536;2023-04-24T02:10:52;5.65;;;3.85;;
51664;SDS011;37751;52.408;12.536;2023-04-24T02:13:19;5.57;;;4.07;;
51664;SDS011;37751;52.408;12.536;2023-04-24T02:15:47;4.75;;;3.92;;
51664;SDS011;37751;52.408;12.536;2023-04-24T02:18:15;4.70;;;4.20;;
51664;SDS011;37751;52.408;12.536;2023-04-24T02:20:43;4.53;;;3.28;;
51664;SDS011;37751;52.408;12.536;2023-04-24T02:23:11;4.40;;;4.00;;
51664;SDS011;37751;52.408;12.536;2023-04-24T02:25:40;4.38;;;3.20;;
51664;SDS011;37751;52.408;12.536;2023-04-24T02:28:08;6.82;;;3.90;;
51664;SDS011;37751;52.408;12.536;2023-04-24T02:30:35;4.68;;;3.30;;
51664;SDS011;37751;52.408;12.536;2023-04-24T02:33:03;4.15;;;3.72;;
51664;SDS011;37751;52.408;12.536;2023-04-24T02:35:31;7.53;;;3.80;;
51664;SDS011;37751;52.408;12.536;2023-04-24T02:37:58;7.57;;;4.00;;
51664;SDS011;37751;52.408;12.536;2023-04-24T02:40:27;5.63;;;3.40;;
51664;SDS011;37751;52.408;12.536;2023-04-24T02:42:55;7.38;;;3.20;;
51664;SDS011;37751;52.408;12.536;2023-04-24T02:45:24;4.45;;;3.08;;
51664;SDS011;37751;52.408;12.536;2023-04-24T02:47:51;4.63;;;3.40;;
51664;SDS011;37751;52.408;12.536;2023-04-24T02:50:19;3.88;;;2.80;;
51664;SDS011;37751;52.408;12.536;2023-04-24T02:52:47;2.85;;;2.65;;
51664;SDS011;37751;52.408;12.536;2023-04-24T02:55:15;4.05;;;3.45;;
51664;SDS011;37751;52.408;12.536;2023-04-24T02:57:42;5.55;;;3.00;;
51664;SDS011;37751;52.408;12.536;2023-04-24T03:00:10;2.88;;;2.67;;
51664;SDS011;37751;52.408;12.536;2023-04-24T03:02:39;4.50;;;3.08;;
51664;SDS011;37751;52.408;12.536;2023-04-24T03:05:07;5.70;;;2.70;;
51664;SDS011;37751;52.408;12.536;2023-04-24T03:07:36;4.70;;;2.35;;
51664;SDS011;37751;52.408;12.536;2023-04-24T03:10:04;6.55;;;3.63;;
51664;SDS011;37751;52.408;12.536;2023-04-24T03:12:33;4.63;;;2.17;;
51664;SDS011;37751;52.408;12.536;2023-04-24T03:15:01;3.75;;;2.38;;
51664;SDS011;37751;52.408;12.536;2023-04-24T03:17:29;3.55;;;2.55;;
51664;SDS011;37751;52.408;12.536;2023-04-24T03:19:56;4.55;;;2.13;;
51664;SDS011;37751;52.408;12.536;2023-04-24T03:22:24;4.38;;;1.92;;
51664;SDS011;37751;52.408;12.536;2023-04-24T03:24:52;4.13;;;2.10;;
51664;SDS011;37751;52.408;12.536;2023-04-24T03:27:22;2.83;;;2.03;;
51664;SDS011;37751;52.408;12.536;2023-04-24T03:29:53;2.58;;;1.90;;
51664;SDS011;37751;52.408;12.536;2023-04-24T03:32:28;2.30;;;2.10;;
51664;SDS011;37751;52.408;12.536;2023-04-24T03:34:56;3.85;;;1.90;;
51664;SDS011;37751;52.408;12.536;2023-04-24T03:37:24;3.42;;;2.15;;
51664;SDS011;37751;52.408;12.536;2023-04-24T03:40:07;2.60;;;2.05;;
51664;SDS011;37751;52.408;12.536;2023-04-24T03:42:37;3.03;;;1.90;;
51664;SDS011;37751;52.408;12.536;2023-04-24T03:45:06;3.85;;;1.88;;
51664;SDS011;37751;52.408;12.536;2023-04-24T03:47:37;2.95;;;1.60;;
51664;SDS011;37751;52.408;12.536;2023-04-24T03:50:05;2.45;;;2.00;;
51664;SDS011;37751;52.408;12.536;2023-04-24T03:52:34;2.28;;;1.70;;
51664;SDS011;37751;52.408;12.536;2023-04-24T03:55:02;2.88;;;1.60;;
51664;SDS011;37751;52.408;12.536;2023-04-24T03:57:34;2.03;;;1.83;;
51664;SDS011;37751;52.408;12.536;2023-04-24T04:00:10;3.88;;;1.75;;
51664;SDS011;37751;52.408;12.536;2023-04-24T04:02:44;2.05;;;1.58;;
51664;SDS011;37751;52.408;12.536;2023-04-24T04:05:12;1.83;;;1.40;;
51664;SDS011;37751;52.408;12.536;2023-04-24T04:07:41;6.78;;;1.50;;
51664;SDS011;37751;52.408;12.536;2023-04-24T04:10:09;3.58;;;1.63;;
51664;SDS011;37751;52.408;12.536;2023-04-24T04:12:37;4.57;;;1.50;;
51664;SDS011;37751;52.408;12.536;2023-04-24T04:15:06;2.20;;;1.55;;
51664;SDS011;37751;52.408;12.536;2023-04-24T04:17:34;3.20;;;1.52;;
51664;SDS011;37751;52.408;12.536;2023-04-24T04:20:05;2.10;;;1.55;;
51664;SDS011;37751;52.408;12.536;2023-04-24T04:22:38;1.60;;;1.50;;
51664;SDS011;37751;52.408;12.536;2023-04-24T04:25:12;1.88;;;1.75;;
51664;SDS011;37751;52.408;12.536;2023-04-24T04:27:41;2.42;;;1.50;;
51664;SDS011;37751;52.408;12.536;2023-04-24T04:30:11;2.00;;;1.65;;
51664;SDS011;37751;52.408;12.536;2023-04-24T04:32:55;6.38;;;1.95;;
51664;SDS011;37751;52.408;12.536;2023-04-24T04:35:23;2.65;;;1.77;;
51664;SDS011;37751;52.408;12.536;2023-04-24T04:37:53;5.25;;;1.30;;
51664;SDS011;37751;52.408;12.536;2023-04-24T04:40:38;2.10;;;1.73;;
51664;SDS011;37751;52.408;12.536;2023-04-24T04:43:07;6.38;;;1.90;;
51664;SDS011;37751;52.408;12.536;2023-04-24T04:45:42;5.00;;;1.90;;
51664;SDS011;37751;52.408;12.536;2023-04-24T04:48:37;3.67;;;1.98;;
51664;SDS011;37751;52.408;12.536;2023-04-24T04:51:06;3.80;;;2.00;;
51664;SDS011;37751;52.408;12.536;2023-04-24T04:53:34;2.63;;;1.55;;
51664;SDS011;37751;52.408;12.536;2023-04-24T04:56:02;2.45;;;1.38;;
51664;SDS011;37751;52.408;12.536;2023-04-24T04:58:36;2.88;;;1.98;;
51664;SDS011;37751;52.408;12.536;2023-04-24T05:01:06;2.22;;;1.50;;
51664;SDS011;37751;52.408;12.536;2023-04-24T05:03:39;5.28;;;1.65;;
51664;SDS011;37751;52.408;12.536;2023-04-24T05:06:10;3.30;;;1.90;;
51664;SDS011;37751;52.408;12.536;2023-04-24T05:08:39;1.60;;;1.45;;
51664;SDS011;37751;52.408;12.536;2023-04-24T05:11:11;4.55;;;1.50;;
51664;SDS011;37751;52.408;12.536;2023-04-24T05:13:40;1.98;;;1.25;;
51664;SDS011;37751;52.408;12.536;2023-04-24T05:16:18;3.00;;;1.38;;
51664;SDS011;37751;52.408;12.536;2023-04-24T05:18:48;4.20;;;1.58;;
51664;SDS011;37751;52.408;12.536;2023-04-24T05:21:19;5.75;;;1.77;;
51664;SDS011;37751;52.408;12.536;2023-04-24T05:23:50;3.97;;;1.60;;
51664;SDS011;37751;52.408;12.536;2023-04-24T05:26:30;2.53;;;1.67;;
51664;SDS011;37751;52.408;12.536;2023-04-24T05:28:59;3.92;;;1.50;;
51664;SDS011;37751;52.408;12.536;2023-04-24T05:31:27;3.45;;;1.35;;
51664;SDS011;37751;52.408;12.536;2023-04-24T05:33:55;2.28;;;1.40;;
51664;SDS011;37751;52.408;12.536;2023-04-24T05:36:23;3.53;;;1.30;;
51664;SDS011;37751;52.408;12.536;2023-04-24T05:38:51;3.30;;;1.83;;
51664;SDS011;37751;52.408;12.536;2023-04-24T05:41:18;6.82;;;1.80;;
51664;SDS011;37751;52.408;12.536;2023-04-24T05:43:46;4.38;;;1.65;;
51664;SDS011;37751;52.408;12.536;2023-04-24T05:46:14;4.50;;;1.70;;
51664;SDS011;37751;52.408;12.536;2023-04-24T05:48:44;3.50;;;1.48;;
51664;SDS011;37751;52.408;12.536;2023-04-24T05:51:12;2.22;;;1.55;;
51664;SDS011;37751;52.408;12.536;2023-04-24T05:53:40;1.63;;;1.00;;
51664;SDS011;37751;52.408;12.536;2023-04-24T05:56:08;0.80;;;0.80;;
51664;SDS011;37751;52.408;12.536;2023-04-24T05:58:37;4.95;;;1.33;;
51664;SDS011;37751;52.408;12.536;2023-04-24T06:01:05;2.67;;;1.20;;
51664;SDS011;37751;52.408;12.536;2023-04-24T06:03:33;6.15;;;1.10;;
51664;SDS011;37751;52.408;12.536;2023-04-24T06:06:03;3.47;;;0.95;;
51664;SDS011;37751;52.408;12.536;2023-04-24T06:08:31;2.63;;;1.08;;
51664;SDS011;37751;52.408;12.536;2023-04-24T06:11:00;2.58;;;1.20;;
51664;SDS011;37751;52.408;12.536;2023-04-24T06:13:31;2.47;;;1.10;;
51664;SDS011;37751;52.408;12.536;2023-04-24T06:16:19;3.70;;;0.90;;
51664;SDS011;37751;52.408;12.536;2023-04-24T06:18:54;1.85;;;0.98;;
51664;SDS011;37751;52.408;12.536;2023-04-24T06:21:22;2.08;;;0.90;;
51664;SDS011;37751;52.408;12.536;2023-04-24T06:23:50;2.38;;;1.25;;
51664;SDS011;37751;52.408;12.536;2023-04-24T06:26:18;1.30;;;0.90;;
51664;SDS011;37751;52.408;12.536;2023-04-24T06:28:45;2.35;;;1.00;;
51664;SDS011;37751;52.408;12.536;2023-04-24T06:31:13;1.83;;;1.00;;
51664;SDS011;37751;52.408;12.536;2023-04-24T06:33:41;3.83;;;1.20;;
51664;SDS011;37751;52.408;12.536;2023-04-24T06:36:09;2.05;;;0.80;;
51664;SDS011;37751;52.408;12.536;2023-04-24T06:38:38;2.97;;;0.90;;
51664;SDS011;37751;52.408;12.536;2023-04-24T06:41:06;2.35;;;1.10;;
51664;SDS011;37751;52.408;12.536;2023-04-24T06:43:34;2.05;;;0.80;;
51664;SDS011;37751;52.408;12.536;2023-04-24T06:46:02;1.65;;;1.00;;
51664;SDS011;37751;52.408;12.536;2023-04-24T06:48:30;2.00;;;0.82;;
51664;SDS011;37751;52.408;12.536;2023-04-24T06:50:58;3.72;;;0.82;;
51664;SDS011;37751;52.408;12.536;2023-04-24T06:53:26;3.45;;;1.15;;
51664;SDS011;37751;52.408;12.536;2023-04-24T06:55:54;3.35;;;0.90;;
51664;SDS011;37751;52.408;12.536;2023-04-24T06:58:24;1.08;;;0.70;;
51664;SDS011;37751;52.408;12.536;2023-04-24T07:00:52;1.13;;;0.70;;
51664;SDS011;37751;52.408;12.536;2023-04-24T07:03:20;4.22;;;0.82;;
51664;SDS011;37751;52.408;12.536;2023-04-24T07:05:48;1.63;;;0.77;;
51664;SDS011;37751;52.408;12.536;2023-04-24T07:08:16;3.17;;;0.70;;
51664;SDS011;37751;52.408;12.536;2023-04-24T07:10:44;13.93;;;3.55;;
51664;SDS011;37751;52.408;12.536;2023-04-24T07:13:12;50.33;;;3.42;;
51664;SDS011;37751;52.408;12.536;2023-04-24T07:15:40;1.00;;;0.65;;
51664;SDS011;37751;52.408;12.536;2023-04-24T07:18:08;1.13;;;0.77;;
51664;SDS011;37751;52.408;12.536;2023-04-24T07:20:36;0.80;;;0.50;;
51664;SDS011;37751;52.408;12.536;2023-04-24T07:23:04;1.15;;;0.63;;
51664;SDS011;37751;52.408;12.536;2023-04-24T07:25:32;2.38;;;0.60;;
51664;SDS011;37751;52.408;12.536;2023-04-24T07:28:00;3.40;;;0.68;;
51664;SDS011;37751;52.408;12.536;2023-04-24T07:30:28;0.88;;;0.60;;
51664;SDS011;37751;52.408;12.536;2023-04-24T07:32:56;5.00;;;1.15;;
51664;SDS011;37751;52.408;12.536;2023-04-24T07:35:24;1.20;;;0.60;;
51664;SDS011;37751;52.408;12.536;2023-04-24T07:37:53;2.80;;;0.63;;
51664;SDS011;37751;52.408;12.536;2023-04-24T07:40:21;1.45;;;0.60;;
51664;SDS011;37751;52.408;12.536;2023-04-24T07:42:49;3.03;;;0.70;;
51664;SDS011;37751;52.408;12.536;2023-04-24T07:45:17;2.05;;;0.80;;
51664;SDS011;37751;52.408;12.536;2023-04-24T07:47:45;0.95;;;0.80;;
51664;SDS011;37751;52.408;12.536;2023-04-24T07:50:15;1.05;;;0.70;;
51664;SDS011;37751;52.408;12.536;2023-04-24T07:52:43;1.58;;;0.70;;
51664;SDS011;37751;52.408;12.536;2023-04-24T07:55:11;5.30;;;0.80;;
51664;SDS011;37751;52.408;12.536;2023-04-24T07:57:39;1.48;;;0.85;;
51664;SDS011;37751;52.408;12.536;2023-04-24T08:00:07;2.33;;;0.90;;
51664;SDS011;37751;52.408;12.536;2023-04-24T08:02:39;7.90;;;1.95;;
51664;SDS011;37751;52.408;12.536;2023-04-24T08:05:07;3.78;;;0.77;;
51664;SDS011;37751;52.408;12.536;2023-04-24T08:07:36;0.85;;;0.60;;
51664;SDS011;37751;52.408;12.536;2023-04-24T08:10:04;2.17;;;0.75;;
51664;SDS011;37751;52.408;12.536;2023-04-24T08:12:32;2.80;;;0.70;;
51664;SDS011;37751;52.408;12.536;2023-04-24T08:15:00;2.00;;;0.70;;
51664;SDS011;37751;52.408;12.536;2023-04-24T08:17:28;1.65;;;0.80;;
51664;SDS011;37751;52.408;12.536;2023-04-24T08:19:57;1.02;;;0.70;;
51664;SDS011;37751;52.408;12.536;2023-04-24T08:22:30;3.35;;;1.02;;
51664;SDS011;37751;52.408;12.536;2023-04-24T08:24:59;2.17;;;0.80;;
51664;SDS011;37751;52.408;12.536;2023-04-24T08:27:27;1.27;;;0.68;;
51664;SDS011;37751;52.408;12.536;2023-04-24T08:29:56;3.55;;;1.05;;
51664;SDS011;37751;52.408;12.536;2023-04-24T08:32:26;3.08;;;0.90;;
51664;SDS011;37751;52.408;12.536;2023-04-24T08:34:56;5.97;;;0.80;;
51664;SDS011;37751;52.408;12.536;2023-04-24T08:37:25;0.98;;;0.88;;
51664;SDS011;37751;52.408;12.536;2023-04-24T08:39:54;6.75;;;0.80;;
51664;SDS011;37751;52.408;12.536;2023-04-24T08:42:21;2.67;;;0.85;;
51664;SDS011;37751;52.408;12.536;2023-04-24T08:44:49;1.40;;;0.90;;
51664;SDS011;37751;52.408;12.536;2023-04-24T08:47:17;3.08;;;0.82;;
51664;SDS011;37751;52.408;12.536;2023-04-24T08:49:47;1.25;;;0.80;;
51664;SDS011;37751;52.408;12.536;2023-04-24T08:52:18;1.30;;;0.98;;
51664;SDS011;37751;52.408;12.536;2023-04-24T08:54:47;1.42;;;0.70;;
51664;SDS011;37751;52.408;12.536;2023-04-24T08:57:15;3.83;;;0.50;;
51664;SDS011;37751;52.408;12.536;2023-04-24T08:59:45;2.63;;;0.70;;
51664;SDS011;37751;52.408;12.536;2023-04-24T09:02:14;1.63;;;0.77;;
51664;SDS011;37751;52.408;12.536;2023-04-24T09:04:43;2.08;;;0.73;;
